Merced, CA (95348)

6:36 PM PST on February 13, 2016 (GMT -0800)
North Merced | | Change Station
CLOSE
Current Station
Personal Weather Station
Location: Merced, CA
Elevation: 174 ft
Nearby Weather Stations

Elev 174 ft 37.34 °N, 120.48 °W | Updated 5 seconds ago

Clear
Clear
60.3 °F
Feels Like 60.3 °F
N
0.0
Wind Variable Wind from NW
Gusts 0.4 mph

Today
High -- | Low -- °F
--% Chance of Precip.
Yesterday
High -- | Low -- °F
Precip. -- in
Pressure 30.19 in
Visibility 10.0 miles
Clouds Clear
Dew Point 48 °F
Humidity 65%
Rainfall in
Snow Depth Not available.
6:53 AM 5:39 PM
Waxing Crescent, 36% visible
METAR KMCE 140153Z AUTO 00000KT 10SM CLR 18/09 A3019 RMK AO2 SLP222 T01780094
Pressure 30.19 in
Visibility 10.0 miles
Clouds Clear
Dew Point 48 °F
Humidity 65%
Rainfall in
Snow Depth Not available.
6:53 AM 5:39 PM
Waxing Crescent, 36% visible
METAR KMCE 140153Z AUTO 00000KT 10SM CLR 18/09 A3019 RMK AO2 SLP222 T01780094

10-Day Weather Forecast

Almanac

Astronomy

Feb. 13, 2016 Rise Set
Actual Time
Civil Twilight
Nautical Twilight
Astronomical Twilight
Moon
Length of Visible Light
Length of Day
Tomorrow will be .
, % of the Moon is Illuminated

Today's Extremes

State Highs State Lows

Community

WunderPhotos

Upload Photos

1,892,730 photos uploaded!

WunderBlog® & News

Nearby

Air Quality

  Air Quality AQ Index Pollutant
Not available.

Snow Depth

Station Depth Elevation

Earthquake Activity

City Distance Mag. Time & Date
Minimum magnitude displayed is 2.5.

Coastal Water Temperatures

Place Temperature

Stations

Nearby Weather Stations

Station Location Temp. Windchill Dew Point Humidity Wind Precip. Elev Updated Type
                   

Watches & Warnings

There are currently no watches in effect.